Flight Track Log - Related Links

Times and Time Zones

All times are in EST time to prevent confusion due to time zone crossing. See the ASQ5685 flight status page for this flight to view local times or setup timezone preferences in your user account.

Time Position Orientation Groundspeed Altitude Reporting Facility
EST Latitude Longitude Course Direction KTS MPH feet Rate Location/Type
Wed 09:54:59 AM 33.6333 -84.3833 65° Northeast 196 226 2,200  Level Atlanta TRACON
Wed 09:56:05 AM 33.6333 -84.3000 90° East 272 313 3,900 2,143 Climbing Atlanta TRACON
Wed 09:57:00 AM 33.8757 -84.1438 54° Northeast  Level Estimated
Wed 09:57:05 AM 33.6333 -84.2000 90° East 291 335 6,700  Level Atlanta TRACON
Wed 09:58:00 AM 33.8724 -84.0090 92° East  Level FlightAware Approximate
Wed 09:58:11 AM 33.6500 -84.1000 79° East 301 346 9,600  Level Atlanta TRACON
Wed 09:59:00 AM 33.9527 -83.9149 53° Northeast  Level Estimated
Wed 09:59:30 AM 33.7192 -83.9914 53° Northeast 346 398 11,700  Level Atlanta Center
Wed 10:00:00 AM 34.0005 -83.7927 65° Northeast  Level FlightAware Approximate
Wed 10:00:30 AM 33.7878 -83.9039 47° Northeast 346 398 12,700  Level Atlanta Center
Wed 10:01:30 AM 33.8608 -83.8061 48° Northeast 365 420 13,700 1,000 Climbing Atlanta Center
Wed 10:02:30 AM 33.9358 -83.7108 46° Northeast 385 443 14,700 1,000 Climbing Atlanta Center
Wed 10:03:30 AM 34.0042 -83.6003 53° Northeast 404 465 15,700 1,000 Climbing Atlanta Center
Wed 10:04:30 AM 34.0706 -83.4897 54° Northeast 409 471 16,700 850 Climbing Atlanta Center
Wed 10:05:30 AM 34.1411 -83.3761 53° Northeast 414 476 17,400 650 Climbing Atlanta Center
Wed 10:06:30 AM 34.2156 -83.2625 52° Northeast 419 482 18,000 700 Climbing Atlanta Center
Wed 10:07:30 AM 34.2775 -83.1614 53° Northeast 419 482 18,800 1,000 Climbing Atlanta Center
Wed 10:08:30 AM 34.3475 -83.0475 53° Northeast 419 482 20,000 1,250 Climbing Atlanta Center
Wed 10:09:30 AM 34.4194 -82.9333 53° Northeast 419 482 21,300 1,200 Climbing Atlanta Center
Wed 10:10:30 AM 34.4853 -82.8192 55° Northeast 414 476 22,400 900 Climbing Atlanta Center
Wed 10:11:30 AM 34.5592 -82.7044 52° Northeast 414 476 23,100 750 Climbing Atlanta Center
Wed 10:12:30 AM 34.6411 -82.5769 52° Northeast 425 489 23,900 700 Climbing Atlanta Center
Wed 10:13:30 AM 34.7108 -82.4619 54° Northeast 425 489 24,500 550 Climbing Atlanta Center
Wed 10:14:30 AM 34.7842 -82.3392 54° Northeast 432 497 25,000 500 Climbing Atlanta Center
Wed 10:15:30 AM 34.8617 -82.2111 54° Northeast 449 517 25,500 450 Climbing Atlanta Center
Wed 10:16:30 AM 34.9311 -82.1031 52° Northeast 455 524 25,900 500 Climbing Atlanta Center
Wed 10:17:30 AM 35.0061 -81.9772 54° Northeast 455 524 26,500 550 Climbing Atlanta Center
Wed 10:18:30 AM 35.0789 -81.8458 56° Northeast 455 524 27,000 500 Climbing Atlanta Center
Wed 10:19:30 AM 35.1475 -81.7144 57° Northeast 455 524 27,500 500 Climbing Atlanta Center
Wed 10:20:30 AM 35.2158 -81.5831 57° Northeast 455 524 28,000 500 Climbing Atlanta Center
Wed 10:21:30 AM 35.2861 -81.4511 57° Northeast 460 529 28,500 500 Climbing Atlanta Center
Wed 10:22:30 AM 35.3564 -81.3139 58° Northeast 460 529 29,000 250 Climbing Atlanta Center
Wed 10:23:30 AM 35.4261 -81.1792 58° Northeast 465 535 29,000  Level Atlanta Center
Wed 10:24:30 AM 35.4981 -81.0389 58° Northeast 470 541 29,000  Level Atlanta Center
Wed 10:25:30 AM 35.5697 -80.9008 57° Northeast 475 547 29,000  Level Atlanta Center
Wed 10:26:30 AM 35.6453 -80.7625 56° Northeast 481 554 29,000  Level Atlanta Center
Wed 10:27:30 AM 35.7186 -80.6189 58° Northeast 487 560 29,000  Level Atlanta Center
Wed 10:29:09 AM 35.8456 -80.3711 58° Northeast 496 571 29,000  Level Washington Center
Wed 10:30:10 AM 35.9181 -80.2267 58° Northeast 496 571 29,000  Level Washington Center
Wed 10:31:11 AM 35.9747 -80.1144 58° Northeast 491 565 29,000  Level Washington Center
Wed 10:32:09 AM 36.0575 -79.9625 56° Northeast 485 558 29,000  Level Washington Center
Wed 10:33:09 AM 36.1333 -79.8253 56° Northeast 485 558 29,000 -50 Level Washington Center
Wed 10:34:10 AM 36.2181 -79.6728 55° Northeast 492 566 28,900 -446 Descending Washington Center
Wed 10:35:10 AM 36.2978 -79.5325 55° Northeast 492 566 28,100 -694 Descending Washington Center
Wed 10:36:11 AM 36.3775 -79.3919 55° Northeast 497 572 27,500 -655 Descending Washington Center
Wed 10:37:09 AM 36.4550 -79.2486 56° Northeast 497 572 26,800 -712 Descending Washington Center
Wed 10:38:09 AM 36.5364 -79.1103 54° Northeast 497 572 26,100 -700 Descending Washington Center
Wed 10:39:09 AM 36.6175 -78.9664 55° Northeast 497 572 25,400 -545 Descending Washington Center
Wed 10:40:10 AM 36.6881 -78.8322 57° Northeast 503 579 25,000 -197 Descending Washington Center
Wed 10:41:11 AM 36.7736 -78.6750 56° Northeast 503 579 25,000  Level Washington Center
Wed 10:42:09 AM 36.8503 -78.5353 56° Northeast 497 572 25,000 -254 Level Washington Center
Wed 10:43:09 AM 36.9381 -78.4400 41° Northeast 478 550 24,500 -645 Descending Washington Center
Wed 10:44:10 AM 37.0428 -78.3344 39° Northeast 473 544 23,700 -694 Descending Washington Center
Wed 10:45:10 AM 37.1453 -78.2286 39° Northeast 473 544 23,100 -645 Descending Washington Center
Wed 10:46:11 AM 37.2456 -78.1253 39° Northeast 473 544 22,400 -545 Descending Washington Center
Wed 10:47:11 AM 37.3458 -78.0189 40° Northeast 468 539 22,000 -203 Descending Washington Center
Wed 10:48:09 AM 37.4436 -77.9147 40° Northeast 468 539 22,000  Level Washington Center
Wed 10:49:09 AM 37.5436 -77.8208 37° Northeast 463 533 22,000 -300 Level Washington Center
Wed 10:50:09 AM 37.6533 -77.7558 25° Northeast 443 510 21,400 -1,350 Descending Washington Center
Wed 10:51:09 AM 37.7606 -77.6931 25° Northeast 421 484 19,300 -2,132 Descending Washington Center
Wed 10:52:10 AM 37.8681 -77.6303 25° Northeast 416 479 17,100 -2,281 Descending Washington Center
Wed 10:53:10 AM 37.9692 -77.5700 25° Northeast 410 472 14,700 -2,331 Descending Washington Center
Wed 10:54:11 AM 38.0661 -77.5169 23° Northeast 391 450 12,400 -2,281 Descending Washington Center
Wed 10:55:11 AM 38.1544 -77.4639 25° Northeast 366 421 10,100 -1,373 Descending Washington Center
Wed 10:56:09 AM 38.2342 -77.4264 20° North 332 382 9,700 -915 Descending Washington Center
Wed 10:57:09 AM 38.3136 -77.4122 North 298 343 8,300 -1,339 Descending Washington Center
Wed 10:58:10 AM 38.3911 -77.4008 North 281 323 7,000 -1,279 Descending Washington Center
Wed 10:59:11 AM 38.4683 -77.3869 North 276 318 5,700 -942 Descending Washington Center
Wed 11:00:11 AM 38.5436 -77.3728 North 276 318 5,100 -513 Descending Washington Center
Wed 11:01:08 AM 38.6231 -77.3642 North 276 318 4,700 -508 Descending Washington Center
Wed 11:02:09 AM 38.7003 -77.3633 360° North 276 318 4,100 -344 Descending Washington Center
Wed 11:03:10 AM 38.7775 -77.3597 North 276 318 4,000 -47 Descending Washington Center
Wed 11:04:16 AM 38.8667 -77.3500 North 248 285 4,000  Level Potomac TRACON
Wed 11:05:16 AM 38.9333 -77.3500 360° North 240 276 4,000  Level Potomac TRACON
Wed 11:06:10 AM 39.0000 -77.3500 360° North 234 269 4,000 -157 Level Potomac TRACON
Wed 11:07:11 AM 39.0667 -77.3500 360° North 235 270 3,700 -645 Descending Potomac TRACON
Wed 11:08:11 AM 39.1167 -77.3500 360° North 223 257 2,700 -700 Descending Potomac TRACON
Wed 11:09:11 AM 39.1667 -77.3833 333° Northwest 225 259 2,300 -350 Descending Potomac TRACON
Wed 11:10:11 AM 39.1500 -77.4333 247° West 217 250 2,000 -150 Descending Potomac TRACON
Wed 11:11:11 AM 39.0833 -77.4333 180° South 207 238 2,000 -99 Level Potomac TRACON
Wed 11:12:12 AM 39.0333 -77.4333 180° South 192 221 1,800 -496 Descending Potomac TRACON
Wed 11:13:12 AM 38.9833 -77.4333 180° South 140 161 1,000 -800 Descending Potomac TRACON

Login

Don't have an account? Register now (free) for customized features, flight alerts, and more!